createdAt,value
2022-09-06T00:02:46.037Z,10.20
2022-09-06T00:07:48.154Z,9.32
2022-09-06T00:12:50.004Z,9.05
2022-09-06T00:17:51.883Z,9.82
2022-09-06T00:22:58.810Z,9.15
2022-09-06T00:28:03.738Z,9.55
2022-09-06T00:33:05.836Z,8.95
2022-09-06T00:38:08.119Z,8.88
2022-09-06T00:43:10.023Z,8.95
2022-09-06T00:48:12.167Z,8.93
2022-09-06T00:53:14.232Z,8.88
2022-09-06T00:58:16.989Z,8.05
2022-09-06T01:03:20.018Z,7.20
2022-09-06T01:08:45.507Z,8.20
2022-09-06T01:13:50.306Z,7.93
2022-09-06T01:19:33.034Z,8.18
2022-09-06T01:24:59.882Z,7.85
2022-09-06T01:30:09.459Z,7.88
2022-09-06T01:35:27.430Z,8.15
2022-09-06T01:40:29.587Z,8.07
2022-09-06T01:45:45.376Z,8.10
2022-09-06T01:51:14.867Z,7.40
2022-09-06T01:56:16.666Z,7.50
2022-09-06T02:01:41.826Z,8.13
2022-09-06T02:07:00.125Z,7.78
2022-09-06T02:12:05.312Z,7.60
2022-09-06T02:17:11.882Z,7.80
2022-09-06T02:22:18.451Z,7.63
2022-09-06T02:27:20.379Z,7.95
2022-09-06T02:32:24.878Z,8.30
2022-09-06T02:37:27.872Z,7.00
2022-09-06T02:42:29.886Z,7.32
2022-09-06T02:47:31.734Z,7.75
2022-09-06T02:52:33.911Z,7.53
2022-09-06T02:57:35.815Z,7.22
2022-09-06T03:02:37.690Z,8.48
2022-09-06T03:07:39.638Z,6.65
2022-09-06T03:12:45.206Z,7.30
2022-09-06T03:17:47.091Z,7.63
2022-09-06T03:22:48.888Z,7.50
2022-09-06T03:27:50.729Z,7.25
2022-09-06T03:32:52.835Z,6.75
2022-09-06T03:37:54.665Z,7.00
2022-09-06T03:42:56.681Z,6.53
2022-09-06T03:47:58.488Z,6.80
2022-09-06T03:53:00.302Z,7.13
2022-09-06T03:58:02.147Z,7.38
2022-09-06T04:03:04.027Z,7.10
2022-09-06T04:08:06.087Z,6.80
2022-09-06T04:13:07.934Z,6.05
2022-09-06T04:18:09.931Z,6.43
2022-09-06T04:23:11.746Z,6.70
2022-09-06T04:28:14.055Z,6.50
2022-09-06T04:33:15.866Z,7.18
2022-09-06T04:38:17.677Z,6.50
2022-09-06T04:43:19.662Z,6.72
2022-09-06T04:48:21.548Z,7.63
2022-09-06T04:53:23.412Z,6.80
2022-09-06T04:58:25.594Z,7.53
2022-09-06T05:03:27.448Z,7.20
2022-09-06T05:08:29.364Z,7.15
2022-09-06T05:13:31.275Z,6.97
2022-09-06T05:18:33.871Z,7.18
2022-09-06T05:23:35.703Z,7.18
2022-09-06T05:28:37.641Z,7.47
2022-09-06T05:33:39.722Z,7.38
2022-09-06T05:38:41.577Z,7.20
2022-09-06T05:43:43.486Z,7.18
2022-09-06T05:48:52.312Z,7.03
2022-09-06T05:53:54.188Z,7.03
2022-09-06T05:58:56.078Z,6.80
2022-09-06T06:04:00.831Z,7.40
2022-09-06T06:09:02.652Z,7.25
2022-09-06T06:14:04.912Z,7.10
2022-09-06T06:19:06.801Z,6.90
2022-09-06T06:24:08.710Z,6.53
2022-09-06T06:29:10.659Z,6.93
2022-09-06T06:34:12.722Z,6.60
2022-09-06T06:39:14.592Z,6.45
2022-09-06T06:44:16.601Z,6.85
2022-09-06T06:49:18.418Z,5.78
2022-09-06T06:54:20.318Z,6.38
2022-09-06T06:59:22.150Z,6.22
2022-09-06T07:04:23.990Z,6.45
2022-09-06T07:14:48.910Z,6.45
2022-09-06T07:25:16.543Z,7.03
2022-09-06T07:30:22.327Z,6.72
2022-09-06T07:35:26.459Z,7.20
2022-09-06T07:40:30.543Z,6.30
2022-09-06T07:45:32.767Z,5.82
2022-09-06T07:50:51.114Z,6.53
2022-09-06T07:55:54.492Z,6.55
2022-09-06T08:01:19.094Z,6.35
2022-09-06T08:06:23.091Z,6.85
2022-09-06T08:11:28.037Z,6.55
2022-09-06T08:16:31.456Z,5.88
2022-09-06T08:21:34.048Z,6.95
2022-09-06T08:26:40.437Z,5.90
2022-09-06T08:31:43.987Z,5.65
2022-09-06T08:36:46.341Z,6.28
2022-09-06T08:41:54.115Z,5.47
2022-09-06T08:52:31.917Z,7.32
2022-09-06T08:57:50.790Z,6.40
2022-09-06T09:03:04.242Z,6.13
2022-09-06T09:08:29.232Z,6.68
2022-09-06T09:13:31.747Z,6.75
2022-09-06T09:18:38.507Z,6.75
2022-09-06T09:23:40.379Z,6.90
2022-09-06T09:29:10.053Z,6.78
2022-09-06T09:34:14.442Z,6.53
2022-09-06T09:39:16.761Z,5.78
2022-09-06T09:44:19.915Z,5.90
2022-09-06T09:49:25.220Z,5.63
2022-09-06T09:54:31.830Z,6.32
2022-09-06T09:59:47.827Z,5.97
2022-09-06T10:04:52.215Z,5.57
2022-09-06T10:10:01.060Z,5.18
2022-09-06T10:15:07.097Z,5.63
2022-09-06T10:20:12.808Z,5.32
2022-09-06T10:25:46.394Z,5.00
2022-09-06T10:31:12.851Z,4.90
2022-09-06T10:36:19.994Z,4.35
2022-09-06T10:41:28.807Z,4.05
2022-09-06T10:46:34.884Z,3.85
2022-09-06T10:51:42.284Z,4.22
2022-09-06T10:56:58.708Z,3.63
2022-09-06T11:02:24.586Z,3.95
2022-09-06T11:07:31.611Z,3.83
2022-09-06T11:12:59.479Z,4.10
2022-09-06T11:18:21.061Z,3.63
2022-09-06T11:23:48.287Z,3.78
2022-09-06T11:28:55.937Z,4.23
2022-09-06T11:34:11.237Z,4.18
2022-09-06T11:39:14.868Z,4.35
2022-09-06T11:44:51.696Z,4.60
2022-09-06T11:49:53.537Z,4.45
2022-09-06T11:54:55.816Z,4.53
2022-09-06T12:00:04.405Z,4.57
2022-09-06T12:05:09.622Z,4.60
2022-09-06T12:10:29.747Z,4.90
2022-09-06T12:15:33.051Z,5.00
2022-09-06T12:20:53.143Z,4.70
2022-09-06T12:25:55.779Z,4.97
2022-09-06T12:30:57.744Z,5.30
2022-09-06T12:36:31.338Z,5.47
2022-09-06T12:41:43.321Z,4.90
2022-09-06T12:46:51.365Z,5.38
2022-09-06T12:52:09.872Z,5.18
2022-09-06T12:57:19.493Z,5.05
2022-09-06T13:02:31.586Z,5.32
2022-09-06T13:07:38.820Z,5.50
2022-09-06T13:12:45.873Z,5.80
2022-09-06T13:17:48.270Z,5.35
2022-09-06T13:22:51.726Z,5.78
2022-09-06T13:27:58.632Z,5.50
2022-09-06T13:33:01.619Z,5.23
2022-09-06T13:38:29.670Z,4.78
2022-09-06T13:43:39.874Z,5.10
2022-09-06T13:48:44.272Z,4.47
2022-09-06T13:53:46.562Z,4.68
2022-09-06T13:58:48.393Z,4.57
2022-09-06T14:03:50.804Z,4.45
2022-09-06T14:09:08.626Z,5.00
2022-09-06T14:14:11.211Z,4.68
2022-09-06T14:19:13.308Z,4.22
2022-09-06T14:24:15.248Z,5.43
2022-09-06T14:29:17.160Z,4.55
2022-09-06T14:34:19.163Z,4.68
2022-09-06T14:39:21.088Z,4.40
2022-09-06T14:44:22.928Z,4.47
2022-09-06T14:49:25.150Z,3.53
2022-09-06T14:54:29.233Z,3.47
2022-09-06T14:59:31.646Z,3.45
2022-09-06T15:04:33.607Z,3.53
2022-09-06T15:09:35.503Z,3.60
2022-09-06T15:14:37.868Z,3.33
2022-09-06T15:19:39.683Z,3.65
2022-09-06T15:24:41.508Z,3.17
2022-09-06T15:29:44.636Z,3.10
2022-09-06T15:34:46.427Z,3.42
2022-09-06T15:39:48.269Z,3.60
2022-09-06T15:44:50.426Z,3.20
2022-09-06T15:49:52.580Z,3.42
2022-09-06T15:55:12.907Z,3.70
2022-09-06T16:00:17.116Z,3.72
2022-09-06T16:05:19.446Z,3.60
2022-09-06T16:10:21.244Z,3.60
2022-09-06T16:15:23.051Z,3.50
2022-09-06T16:20:24.906Z,4.15
2022-09-06T16:25:27.586Z,5.45
2022-09-06T16:30:29.500Z,5.15
2022-09-06T16:35:31.604Z,4.60
2022-09-06T16:40:33.975Z,4.90
2022-09-06T16:45:35.809Z,6.15
2022-09-06T16:50:38.285Z,4.93
2022-09-06T16:55:40.287Z,4.90
2022-09-06T17:00:44.744Z,4.80
2022-09-06T17:05:52.189Z,6.00
2022-09-06T17:10:54.235Z,5.60
2022-09-06T17:16:20.007Z,5.10
2022-09-06T17:21:24.895Z,5.40
2022-09-06T17:26:26.738Z,5.50
2022-09-06T17:31:29.730Z,5.68
2022-09-06T17:36:33.216Z,5.40
2022-09-06T17:41:45.523Z,5.35
2022-09-06T17:47:09.029Z,4.93
2022-09-06T17:52:10.568Z,6.72
2022-09-06T17:57:12.463Z,7.35
2022-09-06T18:02:14.277Z,7.57
2022-09-06T18:07:16.060Z,6.15
2022-09-06T18:12:19.624Z,5.15
2022-09-06T18:17:21.479Z,4.55
2022-09-06T18:22:23.763Z,4.28
2022-09-06T18:27:25.820Z,4.43
2022-09-06T18:32:27.676Z,4.57
2022-09-06T18:37:30.022Z,4.53
2022-09-06T18:42:32.265Z,4.15
2022-09-06T18:47:34.103Z,4.28
2022-09-06T18:52:38.335Z,4.30
2022-09-06T18:57:41.348Z,4.28
2022-09-06T19:02:43.163Z,5.32
2022-09-06T19:07:44.972Z,4.60
2022-09-06T19:12:49.206Z,4.47
2022-09-06T19:17:54.729Z,4.40
2022-09-06T19:22:56.551Z,4.93
2022-09-06T19:27:59.041Z,4.30
2022-09-06T19:33:00.928Z,5.03
2022-09-06T19:38:02.784Z,7.50
2022-09-06T19:43:04.642Z,4.65
2022-09-06T19:48:07.389Z,4.72
2022-09-06T19:53:09.267Z,6.00
2022-09-06T19:58:11.060Z,4.90
2022-09-06T20:03:13.099Z,4.45
2022-09-06T20:08:15.251Z,4.40
2022-09-06T20:13:17.039Z,4.80
2022-09-06T20:18:20.457Z,4.50
2022-09-06T20:23:22.666Z,5.10
2022-09-06T20:28:24.504Z,4.80
2022-09-06T20:33:26.623Z,4.53
2022-09-06T20:38:30.136Z,9.07
2022-09-06T20:43:35.244Z,4.57
2022-09-06T20:48:42.124Z,4.65
2022-09-06T20:53:59.053Z,4.50
2022-09-06T20:59:03.880Z,4.93
2022-09-06T21:04:07.413Z,5.13
2022-09-06T21:09:13.255Z,4.97
2022-09-06T21:14:15.178Z,5.10
2022-09-06T21:19:17.235Z,4.88
2022-09-06T21:24:19.075Z,4.97
2022-09-06T21:29:20.966Z,5.40
2022-09-06T21:34:23.002Z,5.07
2022-09-06T21:39:24.835Z,5.22
2022-09-06T21:44:26.687Z,4.68
2022-09-06T21:49:28.495Z,5.18
2022-09-06T21:54:31.091Z,4.82
2022-09-06T21:59:34.022Z,4.78
2022-09-06T22:04:36.274Z,5.00
2022-09-06T22:09:38.075Z,5.15
2022-09-06T22:14:40.183Z,4.70
2022-09-06T22:19:42.011Z,5.35
2022-09-06T22:24:43.797Z,5.10
2022-09-06T22:29:45.596Z,5.18
2022-09-06T22:34:47.816Z,4.95
2022-09-06T22:39:49.715Z,5.60
2022-09-06T22:44:51.776Z,6.10
2022-09-06T22:49:54.333Z,5.38
2022-09-06T22:54:56.128Z,5.40
2022-09-06T22:59:59.885Z,5.65
2022-09-06T23:05:01.858Z,5.63
2022-09-06T23:10:04.911Z,5.75
2022-09-06T23:15:07.596Z,6.30
2022-09-06T23:20:09.488Z,6.28
2022-09-06T23:25:11.323Z,6.43
2022-09-06T23:30:13.400Z,6.68
2022-09-06T23:35:15.283Z,6.93
2022-09-06T23:40:18.675Z,6.72
2022-09-06T23:45:20.590Z,7.43
2022-09-06T23:50:22.385Z,6.93
2022-09-06T23:55:24.228Z,7.15
